CDT,Max TemperatureF,Mean TemperatureF,Min TemperatureF,Max Dew PointF,MeanDew PointF,Min DewpointF,Max Humidity, Mean Humidity, Min Humidity, Max Sea Level PressureIn, Mean Sea Level PressureIn, Min Sea Level PressureIn, Max VisibilityMiles, Mean VisibilityMiles, Min VisibilityMiles, Max Wind SpeedMPH, Mean Wind SpeedMPH, Max Gust SpeedMPH,PrecipitationIn, CloudCover, Events, WindDirDegrees
2011-10-1,80,63,46,32,29,23,53,30,16,30.26,30.21,30.15,10,10,7,16,6,23,0.00,0,,190
2011-10-2,87,68,50,41,35,30,50,33,16,30.23,30.19,30.12,10,10,10,14,8,18,0.00,0,,193
2011-10-3,82,66,50,50,40,36,71,41,19,30.22,30.18,30.14,10,10,10,17,9,25,0.00,0,,204
2011-10-4,78,64,50,41,35,30,62,37,17,30.22,30.16,30.07,10,10,7,23,8,29,0.00,0,,182
2011-10-5,69,62,55,63,47,30,88,61,28,30.12,30.03,29.91,10,10,5,16,9,24,0.12,4,Rain-Thunderstorm,143
2011-10-6,82,68,55,61,56,54,94,70,39,29.93,29.86,29.77,10,10,10,30,16,40,0.00,2,,174
2011-10-7,82,72,62,63,57,54,83,57,37,29.95,29.88,29.84,10,10,10,26,19,34,0.00,3,,175
2011-10-8,71,61,51,61,46,37,94,63,37,30.03,29.94,29.83,10,10,2,30,14,46,0.41,3,Rain-Thunderstorm,252
2011-10-9,62,56,50,54,50,45,100,83,63,30.12,30.07,30.02,10,9,1,16,7,24,0.01,7,Rain,32
2011-10-10,71,61,51,55,50,39,100,77,31,30.13,30.07,29.97,10,7,0,15,9,18,0.00,5,Fog,201
2011-10-11,77,64,51,61,54,50,100,80,44,30.00,29.90,29.77,10,9,0,18,11,28,0.00,2,Fog,198
2011-10-12,77,64,50,55,47,36,100,61,25,30.04,29.91,29.79,10,8,0,20,11,25,0.00,1,Fog,10
2011-10-13,77,59,41,43,38,32,81,48,24,30.14,30.07,29.94,10,10,10,16,5,24,0.00,0,,198
2011-10-14,78,61,44,45,40,32,87,48,19,29.96,29.94,29.91,10,10,10,13,8,16,0.00,0,,242
2011-10-15,80,65,50,46,45,41,82,55,24,30.14,30.07,30.03,10,10,10,12,7,,0.00,0,,15
2011-10-16,89,70,50,50,42,32,82,43,13,30.09,30.03,29.93,10,10,10,16,9,23,0.00,0,,226
2011-10-17,89,65,41,43,37,25,81,46,10,30.05,29.89,29.74,10,10,3,40,12,55,0.00,0,,302
2011-10-18,62,52,41,41,31,19,81,51,20,30.28,30.21,30.11,10,10,10,30,18,38,0.00,1,,359
2011-10-19,62,48,33,28,26,23,75,48,23,30.25,30.20,30.09,10,10,10,17,7,23,0.00,1,,318
2011-10-20,78,56,35,32,27,21,70,40,12,30.06,30.00,29.92,10,10,10,18,8,23,0.00,0,,188
2011-10-21,78,56,35,36,32,28,81,45,17,30.17,30.11,30.05,10,10,10,15,5,18,0.00,0,,86
2011-10-22,77,58,39,43,35,32,81,47,19,30.09,30.03,29.97,10,10,10,12,4,16,0.00,0,,354
2011-10-23,77,59,41,50,38,30,93,52,18,30.18,30.12,30.06,10,10,7,8,4,,0.00,0,,278
2011-10-24,80,62,44,52,41,36,76,46,23,30.22,30.15,30.06,10,10,10,28,11,34,0.00,0,,205
2011-10-25,84,70,55,50,41,32,67,42,16,30.06,29.98,29.90,10,10,10,21,12,30,0.00,0,,235
2011-10-26,62,54,46,41,37,36,71,52,37,30.05,29.97,29.89,10,10,10,20,11,29,0.00,0,,24
2011-10-27,39,36,33,37,34,32,100,93,87,30.21,30.12,30.05,10,8,1,22,16,31,0.92,7,Rain-Snow-Thunderstorm,15
2011-10-28,53,42,30,36,32,28,100,73,44,30.33,30.27,30.20,10,10,7,10,5,,0.01,0,,334
2011-10-29,62,47,32,43,35,30,100,71,34,30.29,30.14,29.95,10,9,5,23,8,30,0.00,0,,226
2011-10-30,62,52,41,41,35,32,87,56,32,30.23,30.11,29.95,10,10,10,21,10,29,0.00,0,,31
2011-10-31,71,52,33,43,36,32,93,59,25,30.24,30.14,30.02,10,10,7,17,7,24,0.00,0,,229